createdAt,value
2019-06-19T00:02:03.180Z,100792.86
2019-06-19T00:04:33.058Z,100793.66
2019-06-19T00:07:03.483Z,100786.03
2019-06-19T00:09:33.632Z,100787.30
2019-06-19T00:12:03.470Z,100785.84
2019-06-19T00:14:34.223Z,100782.86
2019-06-19T00:17:04.072Z,100779.30
2019-06-19T00:19:36.853Z,100768.94
2019-06-19T00:22:04.968Z,100770.75
2019-06-19T00:24:34.537Z,100769.86
2019-06-19T00:27:04.044Z,100763.92
2019-06-19T00:29:40.205Z,100761.82
2019-06-19T00:32:24.277Z,100759.02
2019-06-19T00:35:06.802Z,100761.98
2019-06-19T00:37:36.449Z,100754.53
2019-06-19T00:40:20.826Z,100759.09
2019-06-19T00:42:51.588Z,100758.89
2019-06-19T00:45:21.545Z,100745.05
2019-06-19T00:47:51.479Z,100753.52
2019-06-19T00:50:21.829Z,100747.48
2019-06-19T00:52:51.829Z,100743.03
2019-06-19T00:55:36.525Z,100743.49
2019-06-19T00:58:06.852Z,100744.30
2019-06-19T01:00:36.595Z,100749.40
2019-06-19T01:03:06.302Z,100743.38
2019-06-19T01:05:35.845Z,100738.55
2019-06-19T01:08:05.498Z,100741.22
2019-06-19T01:10:35.159Z,100744.32
2019-06-19T01:13:04.773Z,100745.36
2019-06-19T01:15:34.506Z,100739.63
2019-06-19T01:18:04.361Z,100734.87
2019-06-19T01:20:34.036Z,100735.36
2019-06-19T01:23:03.655Z,100736.00
2019-06-19T01:25:33.260Z,100730.12
2019-06-19T01:28:02.841Z,100731.21
2019-06-19T01:30:32.557Z,100729.05
2019-06-19T01:33:02.214Z,100737.92
2019-06-19T01:35:32.020Z,100742.56
2019-06-19T01:38:01.938Z,100734.17
2019-06-19T01:40:32.244Z,100732.89
2019-06-19T01:43:02.498Z,100731.84
2019-06-19T01:45:32.204Z,100727.70
2019-06-19T01:48:01.852Z,100726.16
2019-06-19T01:50:31.475Z,100723.19
2019-06-19T01:53:55.692Z,100721.19
2019-06-19T01:56:25.298Z,100715.36
2019-06-19T01:58:54.858Z,100713.83
2019-06-19T02:01:24.778Z,100709.52
2019-06-19T02:04:13.781Z,100706.03
2019-06-19T02:06:43.466Z,100704.17
2019-06-19T02:09:13.122Z,100704.41
2019-06-19T02:11:42.711Z,100700.88
2019-06-19T02:14:12.422Z,100705.67
2019-06-19T02:16:42.049Z,100704.05
2019-06-19T02:19:11.746Z,100702.50
2019-06-19T02:21:43.971Z,100710.41
2019-06-19T02:24:13.577Z,100693.39
2019-06-19T02:26:43.183Z,100699.86
2019-06-19T02:29:12.782Z,100690.50
2019-06-19T02:31:42.695Z,100684.05
2019-06-19T02:34:13.083Z,100683.80
2019-06-19T02:36:43.730Z,100684.16
2019-06-19T02:39:13.612Z,100682.72
2019-06-19T02:41:43.251Z,100679.59
2019-06-19T02:44:14.440Z,100689.55
2019-06-19T02:46:44.733Z,100678.22
2019-06-19T02:49:14.384Z,100681.33
2019-06-19T02:51:44.080Z,100684.28
2019-06-19T02:54:14.313Z,100681.94
2019-06-19T02:56:43.965Z,100685.73
2019-06-19T02:59:13.683Z,100687.27
2019-06-19T03:01:43.405Z,100681.57
2019-06-19T03:04:15.195Z,100683.50
2019-06-19T03:06:44.272Z,100687.98
2019-06-19T03:09:13.881Z,100685.05
2019-06-19T03:11:43.524Z,100684.63
2019-06-19T03:14:13.057Z,100678.05
2019-06-19T03:16:42.976Z,100678.71
2019-06-19T03:19:12.560Z,100675.09
2019-06-19T03:21:42.100Z,100675.58
2019-06-19T03:24:11.621Z,100676.23
2019-06-19T03:26:41.219Z,100673.80
2019-06-19T03:29:10.906Z,100674.86
2019-06-19T03:31:40.502Z,100679.66
2019-06-19T03:34:10.061Z,100679.95
2019-06-19T03:36:39.653Z,100683.55
2019-06-19T03:39:09.249Z,100675.04
2019-06-19T03:41:38.780Z,100677.26
2019-06-19T03:44:08.386Z,100676.53
2019-06-19T03:46:38.380Z,100670.78
2019-06-19T03:49:07.898Z,100671.86
2019-06-19T03:51:43.392Z,100662.93
2019-06-19T03:54:12.904Z,100667.60
2019-06-19T03:56:42.485Z,100671.08
2019-06-19T03:59:12.104Z,100674.13
2019-06-19T04:01:49.287Z,100667.52
2019-06-19T04:04:13.431Z,100669.84
2019-06-19T04:06:43.039Z,100658.30
2019-06-19T04:09:12.579Z,100658.19
2019-06-19T04:11:42.109Z,100654.37
2019-06-19T04:14:12.922Z,100659.70
2019-06-19T04:16:42.500Z,100653.56
2019-06-19T04:19:12.077Z,100656.63
2019-06-19T04:21:41.626Z,100649.05
2019-06-19T04:24:11.295Z,100651.50
2019-06-19T04:26:41.434Z,100653.63
2019-06-19T04:29:25.707Z,100646.77
2019-06-19T04:32:05.938Z,100637.98
2019-06-19T04:34:26.536Z,100644.28
2019-06-19T04:36:56.245Z,100641.14
2019-06-19T04:39:25.853Z,100635.87
2019-06-19T04:41:55.462Z,100637.58
2019-06-19T04:44:26.957Z,100642.02
2019-06-19T04:46:56.596Z,100631.38
2019-06-19T04:49:26.223Z,100639.94
2019-06-19T04:51:55.908Z,100638.27
2019-06-19T04:54:25.551Z,100635.95
2019-06-19T04:56:55.170Z,100635.45
2019-06-19T04:59:24.943Z,100627.11
2019-06-19T05:01:54.780Z,100631.04
2019-06-19T05:04:24.444Z,100628.72
2019-06-19T05:06:55.184Z,100625.80
2019-06-19T05:09:24.831Z,100639.52
2019-06-19T05:11:54.394Z,100629.81
2019-06-19T05:14:23.936Z,100632.56
2019-06-19T05:16:53.562Z,100640.97
2019-06-19T05:19:23.074Z,100631.41
2019-06-19T05:21:52.710Z,100625.22
2019-06-19T05:24:22.216Z,100626.92
2019-06-19T05:26:51.758Z,100632.86
2019-06-19T05:29:21.443Z,100628.18
2019-06-19T05:31:51.399Z,100627.18
2019-06-19T05:34:20.993Z,100626.89
2019-06-19T05:36:50.624Z,100627.34
2019-06-19T05:39:20.164Z,100631.05
2019-06-19T05:41:49.678Z,100625.90
2019-06-19T05:44:19.362Z,100629.00
2019-06-19T05:46:49.034Z,100624.60
2019-06-19T05:49:18.912Z,100623.98
2019-06-19T05:51:49.156Z,100621.17
2019-06-19T05:54:18.768Z,100612.29
2019-06-19T05:56:48.382Z,100604.38
2019-06-19T05:59:19.494Z,100614.80
2019-06-19T06:01:49.165Z,100615.16
2019-06-19T06:04:18.879Z,100610.05
2019-06-19T06:06:48.648Z,100620.67
2019-06-19T06:09:18.264Z,100614.59
2019-06-19T06:11:47.883Z,100615.78
2019-06-19T06:14:17.727Z,100612.82
2019-06-19T06:16:47.265Z,100614.85
2019-06-19T06:19:16.760Z,100601.50
2019-06-19T06:21:47.942Z,100598.19
2019-06-19T06:24:17.628Z,100596.42
2019-06-19T06:26:47.694Z,100595.66
2019-06-19T06:29:17.443Z,100596.53
2019-06-19T06:31:47.043Z,100591.79
2019-06-19T06:34:16.830Z,100584.61
2019-06-19T06:36:46.827Z,100587.95
2019-06-19T06:39:16.491Z,100583.81
2019-06-19T06:41:46.065Z,100583.51
2019-06-19T06:44:15.727Z,100583.23
2019-06-19T06:46:45.255Z,100576.57
2019-06-19T06:49:14.891Z,100573.19
2019-06-19T06:51:44.517Z,100568.95
2019-06-19T06:54:14.120Z,100570.03
2019-06-19T06:56:43.788Z,100563.88
2019-06-19T06:59:14.382Z,100569.14
2019-06-19T07:01:43.973Z,100565.98
2019-06-19T07:04:13.653Z,100570.16
2019-06-19T07:06:43.190Z,100578.00
2019-06-19T07:09:12.784Z,100575.28
2019-06-19T07:11:42.310Z,100568.81
2019-06-19T07:14:11.845Z,100572.83
2019-06-19T07:16:41.507Z,100564.19
2019-06-19T07:19:11.108Z,100561.83
2019-06-19T07:21:40.858Z,100560.28
2019-06-19T07:24:10.371Z,100557.80
2019-06-19T07:26:52.185Z,100557.00
2019-06-19T07:29:11.328Z,100558.31
2019-06-19T07:31:41.016Z,100553.70
2019-06-19T07:34:10.622Z,100554.66
2019-06-19T07:36:40.155Z,100549.92
2019-06-19T07:39:09.681Z,100550.20
2019-06-19T07:41:39.251Z,100550.11
2019-06-19T07:44:09.205Z,100543.67
2019-06-19T07:46:38.725Z,100539.97
2019-06-19T07:49:08.389Z,100540.81
2019-06-19T07:51:38.016Z,100532.37
2019-06-19T07:54:07.516Z,100532.37
2019-06-19T07:56:37.023Z,100532.55
2019-06-19T07:59:06.768Z,100533.53
2019-06-19T08:01:36.383Z,100532.80
2019-06-19T08:04:05.971Z,100537.92
2019-06-19T08:06:36.560Z,100538.48
2019-06-19T08:09:07.926Z,100530.61
2019-06-19T08:11:37.517Z,100524.73
2019-06-19T08:14:07.236Z,100522.63
2019-06-19T08:16:36.901Z,100520.03
2019-06-19T08:19:06.567Z,100529.83
2019-06-19T08:21:36.842Z,100525.18
2019-06-19T08:24:06.648Z,100524.47
2019-06-19T08:26:36.213Z,100533.23
2019-06-19T08:29:06.054Z,100536.48
2019-06-19T08:31:35.596Z,100538.14
2019-06-19T08:34:14.416Z,100535.16
2019-06-19T08:36:36.580Z,100539.09
2019-06-19T08:39:08.539Z,100526.55
2019-06-19T08:41:38.309Z,100532.19
2019-06-19T08:44:09.064Z,100525.08
2019-06-19T08:46:38.594Z,100520.81
2019-06-19T08:49:08.240Z,100525.55
2019-06-19T08:51:37.799Z,100527.99
2019-06-19T08:54:07.418Z,100522.88
2019-06-19T08:56:37.024Z,100519.51
2019-06-19T08:59:06.746Z,100522.55
2019-06-19T09:01:36.406Z,100521.61
2019-06-19T09:04:06.144Z,100515.71
2019-06-19T09:06:37.861Z,100515.41
2019-06-19T09:09:10.611Z,100508.66
2019-06-19T09:11:41.835Z,100507.33
2019-06-19T09:14:11.357Z,100504.21
2019-06-19T09:16:41.081Z,100502.17
2019-06-19T09:19:10.591Z,100493.69
2019-06-19T09:21:40.323Z,100490.44
2019-06-19T09:24:09.869Z,100496.61
2019-06-19T09:26:39.555Z,100514.66
2019-06-19T09:29:09.388Z,100485.26
2019-06-19T09:31:41.522Z,100489.84
2019-06-19T09:34:11.060Z,100486.03
2019-06-19T09:36:40.969Z,100480.67
2019-06-19T09:39:10.679Z,100491.92
2019-06-19T09:41:40.231Z,100484.64
2019-06-19T09:44:09.811Z,100492.14
2019-06-19T09:46:39.456Z,100494.47
2019-06-19T09:49:09.542Z,100480.15
2019-06-19T09:51:39.205Z,100480.63
2019-06-19T09:54:08.828Z,100479.98
2019-06-19T09:56:38.395Z,100480.78
2019-06-19T09:59:07.990Z,100465.26
2019-06-19T10:01:37.504Z,100457.55
2019-06-19T10:04:07.450Z,100467.87
2019-06-19T10:06:37.790Z,100463.66
2019-06-19T10:09:09.401Z,100455.43
2019-06-19T10:11:38.983Z,100464.95
2019-06-19T10:14:09.064Z,100447.63
2019-06-19T10:16:38.723Z,100449.69
2019-06-19T10:19:08.438Z,100448.68
2019-06-19T10:21:38.050Z,100445.36
2019-06-19T10:24:07.570Z,100448.89
2019-06-19T10:26:37.085Z,100451.29
2019-06-19T10:29:06.846Z,100450.57
2019-06-19T10:31:36.432Z,100446.06
2019-06-19T10:34:06.221Z,100441.73
2019-06-19T10:36:36.090Z,100450.47
2019-06-19T10:39:08.115Z,100445.22
2019-06-19T10:41:37.722Z,100443.42
2019-06-19T10:44:07.432Z,100433.34
2019-06-19T10:46:41.745Z,100439.68
2019-06-19T10:49:08.367Z,100438.40
2019-06-19T10:51:41.526Z,100441.52
2019-06-19T10:54:11.089Z,100450.55
2019-06-19T10:56:43.378Z,100441.16
2019-06-19T10:59:12.935Z,100428.77
2019-06-19T11:01:42.533Z,100430.91
2019-06-19T11:04:12.150Z,100433.94
2019-06-19T11:06:42.674Z,100429.63
2019-06-19T11:09:12.506Z,100424.84
2019-06-19T11:11:42.200Z,100418.03
2019-06-19T11:14:11.768Z,100428.34
2019-06-19T11:16:41.296Z,100415.88
2019-06-19T11:19:10.832Z,100413.77
2019-06-19T11:21:40.512Z,100418.31
2019-06-19T11:24:10.093Z,100425.19
2019-06-19T11:26:39.585Z,100426.91
2019-06-19T11:29:10.007Z,100415.89
2019-06-19T11:31:39.974Z,100405.30
2019-06-19T11:34:09.546Z,100406.98
2019-06-19T11:36:39.162Z,100409.44
2019-06-19T11:39:09.714Z,100416.81
2019-06-19T11:41:39.341Z,100406.46
2019-06-19T11:44:08.956Z,100415.48
2019-06-19T11:46:38.604Z,100411.25
2019-06-19T11:49:08.188Z,100418.36
2019-06-19T11:51:38.269Z,100418.98
2019-06-19T11:54:07.946Z,100407.42
2019-06-19T11:56:37.600Z,100400.80
2019-06-19T11:59:08.294Z,100406.84
2019-06-19T12:01:37.839Z,100411.91
2019-06-19T12:04:07.386Z,100400.52
2019-06-19T12:06:37.154Z,100399.58
2019-06-19T12:09:09.346Z,100392.49
2019-06-19T12:11:39.132Z,100391.24
2019-06-19T12:14:18.076Z,100387.19
2019-06-19T12:16:40.497Z,100390.75
2019-06-19T12:19:10.049Z,100386.11
2019-06-19T12:21:39.672Z,100385.28
2019-06-19T12:24:09.338Z,100373.38
2019-06-19T12:26:39.142Z,100385.28
2019-06-19T12:29:09.017Z,100375.44
2019-06-19T12:31:38.784Z,100375.52
2019-06-19T12:34:08.540Z,100381.81
2019-06-19T12:36:38.179Z,100383.38
2019-06-19T12:39:10.117Z,100381.48
2019-06-19T12:41:39.712Z,100372.55
2019-06-19T12:44:09.324Z,100366.27
2019-06-19T12:46:39.075Z,100371.80
2019-06-19T12:49:08.653Z,100360.38
2019-06-19T12:51:38.214Z,100359.95
2019-06-19T12:54:07.750Z,100357.39
2019-06-19T12:56:37.261Z,100362.87
2019-06-19T12:59:07.002Z,100346.05
2019-06-19T13:01:36.580Z,100349.55
2019-06-19T13:04:06.315Z,100356.67
2019-06-19T13:06:46.670Z,100347.17
2019-06-19T13:09:08.968Z,100356.34
2019-06-19T13:11:38.483Z,100352.36
2019-06-19T13:14:08.290Z,100339.34
2019-06-19T13:16:37.920Z,100330.33
2019-06-19T13:19:07.626Z,100324.94
2019-06-19T13:21:37.459Z,100320.74
2019-06-19T13:24:07.234Z,100316.77
2019-06-19T13:26:36.825Z,100315.57
2019-06-19T13:29:07.421Z,100307.50
2019-06-19T13:31:37.013Z,100314.27
2019-06-19T13:34:06.658Z,100299.27
2019-06-19T13:36:36.509Z,100295.36
2019-06-19T13:39:08.602Z,100288.34
2019-06-19T13:41:38.289Z,100294.70
2019-06-19T13:44:07.910Z,100289.73
2019-06-19T13:46:37.498Z,100292.56
2019-06-19T13:49:07.087Z,100291.65
2019-06-19T13:51:36.634Z,100289.13
2019-06-19T13:54:06.490Z,100284.22
2019-06-19T13:56:36.296Z,100289.19
2019-06-19T13:59:06.529Z,100289.14
2019-06-19T14:01:36.049Z,100285.81
2019-06-19T14:04:05.723Z,100285.53
2019-06-19T14:06:35.407Z,100279.61
2019-06-19T14:09:06.497Z,100280.20
2019-06-19T14:11:36.158Z,100280.81
2019-06-19T14:14:06.608Z,100273.63
2019-06-19T14:16:36.146Z,100271.02
2019-06-19T14:19:05.804Z,100267.65
2019-06-19T14:21:35.637Z,100266.09
2019-06-19T14:24:05.293Z,100261.02
2019-06-19T14:26:34.959Z,100277.06
2019-06-19T14:29:04.725Z,100255.72
2019-06-19T14:31:34.290Z,100260.61
2019-06-19T14:34:03.902Z,100246.27
2019-06-19T14:36:33.517Z,100241.22
2019-06-19T14:39:03.539Z,100232.70
2019-06-19T14:41:33.127Z,100228.00
2019-06-19T14:44:02.966Z,100233.63
2019-06-19T14:46:32.768Z,100225.25
2019-06-19T14:49:02.384Z,100223.64
2019-06-19T14:51:31.991Z,100218.91
2019-06-19T14:54:01.497Z,100222.02
2019-06-19T14:56:31.057Z,100227.25
2019-06-19T14:59:00.635Z,100230.55
2019-06-19T15:01:30.157Z,100229.14
2019-06-19T15:03:59.683Z,100229.73
2019-06-19T15:06:29.520Z,100231.81
2019-06-19T15:08:59.069Z,100234.31
2019-06-19T15:11:28.587Z,100239.54
2019-06-19T15:13:58.168Z,100256.12
2019-06-19T15:16:27.830Z,100261.81
2019-06-19T15:18:57.376Z,100259.09
2019-06-19T15:21:27.003Z,100249.27
2019-06-19T15:23:56.590Z,100250.28
2019-06-19T15:26:26.166Z,100231.77
2019-06-19T15:28:56.182Z,100246.83
2019-06-19T15:31:25.720Z,100236.97
2019-06-19T15:33:55.234Z,100245.23
2019-06-19T15:36:24.922Z,100246.14
2019-06-19T15:38:54.449Z,100244.36
2019-06-19T15:41:23.952Z,100236.77
2019-06-19T15:43:54.084Z,100233.11
2019-06-19T15:46:28.050Z,100233.89
2019-06-19T15:48:55.036Z,100235.73
2019-06-19T15:51:24.955Z,100248.47
2019-06-19T15:53:54.571Z,100327.38
2019-06-19T15:56:24.124Z,100318.44
2019-06-19T15:58:53.684Z,100324.77
2019-06-19T16:01:23.718Z,100325.83
2019-06-19T16:03:53.812Z,100343.65
2019-06-19T16:06:23.362Z,100360.42
2019-06-19T16:08:52.900Z,100374.32
2019-06-19T16:11:22.419Z,100384.55
2019-06-19T16:13:54.946Z,100411.04
2019-06-19T16:16:24.461Z,100422.21
2019-06-19T16:18:54.055Z,100428.88
2019-06-19T16:21:23.757Z,100430.52
2019-06-19T16:23:53.719Z,100424.19
2019-06-19T16:26:25.161Z,100413.64
2019-06-19T16:28:54.681Z,100405.27
2019-06-19T16:31:24.292Z,100393.81
2019-06-19T16:33:53.830Z,100393.98
2019-06-19T16:36:23.900Z,100384.86
2019-06-19T16:38:53.565Z,100358.28
2019-06-19T16:41:23.165Z,100359.98
2019-06-19T16:43:52.706Z,100364.31
2019-06-19T16:46:22.287Z,100344.63
2019-06-19T16:48:54.367Z,100321.66
2019-06-19T16:51:23.972Z,100302.47
2019-06-19T16:53:53.575Z,100292.77
2019-06-19T16:56:23.329Z,100272.23
2019-06-19T16:58:52.910Z,100253.28
2019-06-19T17:01:22.446Z,100251.63
2019-06-19T17:03:51.992Z,100262.83
2019-06-19T17:06:21.569Z,100258.83
2019-06-19T17:09:03.889Z,100257.66
2019-06-19T17:11:22.916Z,100257.66
2019-06-19T17:13:52.728Z,100260.95
2019-06-19T17:16:22.243Z,100263.44
2019-06-19T17:18:51.803Z,100265.05
2019-06-19T17:21:21.751Z,100274.97
2019-06-19T17:23:51.357Z,100270.05
2019-06-19T17:26:20.928Z,100256.79
2019-06-19T17:28:50.678Z,100239.66
2019-06-19T17:31:20.420Z,100246.97
2019-06-19T17:33:49.995Z,100242.94
2019-06-19T17:36:20.078Z,100247.39
2019-06-19T17:38:49.726Z,100246.26
2019-06-19T17:41:19.590Z,100246.23
2019-06-19T17:43:49.485Z,100237.06
2019-06-19T17:46:19.091Z,100242.91
2019-06-19T17:48:48.810Z,100235.48
2019-06-19T17:51:18.505Z,100230.66
2019-06-19T17:53:48.077Z,100220.19
2019-06-19T17:56:17.620Z,100228.20
2019-06-19T17:58:47.435Z,100235.88
2019-06-19T18:01:16.951Z,100228.84
2019-06-19T18:03:46.553Z,100242.88
2019-06-19T18:06:16.336Z,100250.28
2019-06-19T18:08:45.862Z,100253.80
2019-06-19T18:11:16.051Z,100255.28
2019-06-19T18:14:06.373Z,100256.28
2019-06-19T18:16:37.171Z,100269.16
2019-06-19T18:19:07.029Z,100279.38
2019-06-19T18:21:36.762Z,100284.61
2019-06-19T18:24:06.467Z,100286.16
2019-06-19T18:26:36.161Z,100300.57
2019-06-19T18:29:05.868Z,100320.15
2019-06-19T18:31:35.596Z,100331.80
2019-06-19T18:34:06.114Z,100317.38
2019-06-19T18:36:35.628Z,100319.61
2019-06-19T18:39:08.151Z,100331.98
2019-06-19T18:41:37.891Z,100338.08
2019-06-19T18:44:07.668Z,100332.42
2019-06-19T18:46:37.240Z,100331.48
2019-06-19T18:49:06.850Z,100337.11
2019-06-19T18:51:36.461Z,100332.16
2019-06-19T18:54:06.087Z,100336.79
2019-06-19T18:56:35.737Z,100336.47
2019-06-19T18:59:05.349Z,100336.52
2019-06-19T19:01:34.923Z,100335.39
2019-06-19T19:04:04.610Z,100332.28
2019-06-19T19:06:34.789Z,100327.20
2019-06-19T19:09:06.167Z,100330.09
2019-06-19T19:11:35.882Z,100338.02
2019-06-19T19:14:05.987Z,100339.47
2019-06-19T19:16:35.504Z,100338.66
2019-06-19T19:19:05.580Z,100334.09
2019-06-19T19:21:35.216Z,100333.83
2019-06-19T19:24:04.863Z,100334.83
2019-06-19T19:26:34.748Z,100336.78
2019-06-19T19:29:05.047Z,100350.11
2019-06-19T19:31:34.640Z,100352.33
2019-06-19T19:34:04.357Z,100353.27
2019-06-19T19:36:34.010Z,100348.03
2019-06-19T19:39:03.600Z,100351.25
2019-06-19T19:41:34.089Z,100356.52
2019-06-19T19:44:03.963Z,100349.33
2019-06-19T19:46:33.911Z,100343.25
2019-06-19T19:49:03.550Z,100348.86
2019-06-19T19:51:33.512Z,100346.50
2019-06-19T19:54:03.196Z,100346.16
2019-06-19T19:56:32.786Z,100355.63
2019-06-19T19:59:02.411Z,100355.09
2019-06-19T20:01:34.638Z,100348.22
2019-06-19T20:04:04.327Z,100349.89
2019-06-19T20:06:33.918Z,100347.11
2019-06-19T20:09:03.522Z,100349.67
2019-06-19T20:11:33.235Z,100360.25
2019-06-19T20:14:03.570Z,100350.49
2019-06-19T20:16:33.093Z,100361.41
2019-06-19T20:19:02.821Z,100356.70
2019-06-19T20:21:32.441Z,100357.80
2019-06-19T20:24:03.354Z,100356.14
2019-06-19T20:26:32.914Z,100361.41
2019-06-19T20:29:04.294Z,100359.45
2019-06-19T20:31:33.712Z,100360.30
2019-06-19T20:34:03.346Z,100364.73
2019-06-19T20:36:34.000Z,100368.28
2019-06-19T20:39:15.443Z,100375.42
2019-06-19T20:41:34.961Z,100360.68
2019-06-19T20:44:05.079Z,100361.55
2019-06-19T20:46:34.920Z,100359.62
2019-06-19T20:49:04.631Z,100368.16
2019-06-19T20:51:34.285Z,100363.77
2019-06-19T20:54:04.033Z,100362.92
2019-06-19T20:56:33.624Z,100356.87
2019-06-19T20:59:15.417Z,100353.50
2019-06-19T21:01:34.586Z,100357.94
2019-06-19T21:04:06.188Z,100359.83
2019-06-19T21:06:35.740Z,100357.35
2019-06-19T21:09:08.818Z,100351.22
2019-06-19T21:11:38.408Z,100361.80
2019-06-19T21:14:10.298Z,100357.04
2019-06-19T21:16:39.855Z,100350.08
2019-06-19T21:19:09.376Z,100346.62
2019-06-19T21:21:39.015Z,100346.66
2019-06-19T21:24:08.571Z,100334.50
2019-06-19T21:26:38.137Z,100336.26
2019-06-19T21:29:07.674Z,100328.82
2019-06-19T21:31:39.014Z,100324.69
2019-06-19T21:34:09.331Z,100309.77
2019-06-19T21:36:39.024Z,100306.46
2019-06-19T21:39:08.903Z,100315.42
2019-06-19T21:41:40.767Z,100316.53
2019-06-19T21:44:18.847Z,100324.84
2019-06-19T21:46:41.700Z,100327.60
2019-06-19T21:49:11.687Z,100328.09
2019-06-19T21:51:42.781Z,100322.23
2019-06-19T21:54:12.307Z,100321.09
2019-06-19T21:56:41.837Z,100330.16
2019-06-19T21:59:11.471Z,100334.33
2019-06-19T22:01:41.329Z,100338.78
2019-06-19T22:04:10.995Z,100344.91
2019-06-19T22:06:53.239Z,100352.00
2019-06-19T22:09:22.744Z,100355.24
2019-06-19T22:11:54.758Z,100391.90
2019-06-19T22:14:23.829Z,100435.17
2019-06-19T22:16:53.357Z,100446.81
2019-06-19T22:19:22.954Z,100427.60
2019-06-19T22:21:52.793Z,100460.63
2019-06-19T22:24:22.438Z,100470.39
2019-06-19T22:26:52.100Z,100471.01
2019-06-19T22:29:22.103Z,100473.06
2019-06-19T22:31:51.710Z,100478.52
2019-06-19T22:34:21.424Z,100476.05
2019-06-19T22:36:51.119Z,100478.53
2019-06-19T22:39:20.849Z,100474.78
2019-06-19T22:41:50.426Z,100482.70
2019-06-19T22:44:20.526Z,100495.77
2019-06-19T22:46:50.221Z,100493.37
2019-06-19T22:49:19.886Z,100478.67
2019-06-19T22:51:49.657Z,100498.38
2019-06-19T22:54:19.309Z,100515.37
2019-06-19T22:56:48.863Z,100520.84
2019-06-19T22:59:18.889Z,100527.41
2019-06-19T23:01:56.656Z,100586.45
2019-06-19T23:04:26.245Z,100620.28
2019-06-19T23:06:55.914Z,100647.25
2019-06-19T23:09:25.567Z,100635.70
2019-06-19T23:11:55.389Z,100632.16
2019-06-19T23:14:24.930Z,100623.87
2019-06-19T23:16:54.847Z,100610.30
2019-06-19T23:19:24.408Z,100591.08
2019-06-19T23:21:53.913Z,100585.00
2019-06-19T23:24:23.415Z,100570.27
2019-06-19T23:26:53.034Z,100554.50
2019-06-19T23:29:22.562Z,100542.29
2019-06-19T23:31:52.196Z,100534.26
2019-06-19T23:34:21.778Z,100529.05
2019-06-19T23:36:51.437Z,100529.53
2019-06-19T23:39:20.954Z,100527.78
2019-06-19T23:41:50.495Z,100530.02
2019-06-19T23:44:21.565Z,100525.28
2019-06-19T23:46:51.350Z,100529.89
2019-06-19T23:49:20.905Z,100519.53
2019-06-19T23:51:50.529Z,100509.34
2019-06-19T23:54:20.168Z,100506.20
2019-06-19T23:56:49.962Z,100514.59
2019-06-19T23:59:19.458Z,100543.84
